Terminal Aerodrome Forecast
Issued by NWS

Home | Current Version | Previous Version | Graphics & Text | Print | Product List | Glossary On
Versions: 1 2 3 4 5 6 7 8 9 10 11 12 13 14 15 16 17
000
FTUS43 KICT 262100 AAA
TAFCNU
TAF AMD
KCNU 262100Z 2622/2718 14017KT P6SM VCTS SCT025 BKN035CB
     FM270000 13013KT P6SM VCTS OVC035CB
      TEMPO 2700/2703 VRB30G43KT 3SM TSRA OVC025CB
     FM270300 19013KT 6SM -TSRA SCT015 OVC025CB
      TEMPO 2703/2706 VRB30G43KT 2SM +TSRA OVC013CB
     FM270600 VRB04KT 3SM TSRA OVC013CB
      TEMPO 2706/2709 VRB26G35KT 1SM +TSRA OVC007CB
     FM270900 14009KT P6SM SCT010 OVC080
     FM271200 18007KT P6SM SCT010 OVC100=

USA.gov is the U.S. government's official web portal to all federal, state and local government web resources and services.